sensor_id;sensor_type;location;lat;lon;timestamp;pressure;altitude;pressure_sealevel;temperature;humidity
22104;BME280;11218;48.886;9.426;2023-05-01T00:01:32;97950.53;;;11.32;72.36
22104;BME280;11218;48.886;9.426;2023-05-01T00:04:00;97954.59;;;11.35;72.11
22104;BME280;11218;48.886;9.426;2023-05-01T00:06:28;97948.44;;;11.39;72.10
22104;BME280;11218;48.886;9.426;2023-05-01T00:08:57;97948.47;;;11.44;72.08
22104;BME280;11218;48.886;9.426;2023-05-01T00:11:25;97945.53;;;11.46;71.55
22104;BME280;11218;48.886;9.426;2023-05-01T00:13:54;97941.50;;;11.48;70.96
22104;BME280;11218;48.886;9.426;2023-05-01T00:16:22;97946.34;;;11.46;70.68
22104;BME280;11218;48.886;9.426;2023-05-01T00:18:50;97940.41;;;11.44;71.31
22104;BME280;11218;48.886;9.426;2023-05-01T00:21:18;97939.78;;;11.37;71.23
22104;BME280;11218;48.886;9.426;2023-05-01T00:23:46;97938.19;;;11.36;71.17
22104;BME280;11218;48.886;9.426;2023-05-01T00:26:14;97937.06;;;11.32;71.50
22104;BME280;11218;48.886;9.426;2023-05-01T00:28:43;97933.22;;;11.23;71.42
22104;BME280;11218;48.886;9.426;2023-05-01T00:31:12;97926.16;;;11.17;72.09
22104;BME280;11218;48.886;9.426;2023-05-01T00:33:41;97921.03;;;11.15;72.19
22104;BME280;11218;48.886;9.426;2023-05-01T00:36:09;97917.78;;;11.13;72.01
22104;BME280;11218;48.886;9.426;2023-05-01T00:38:37;97918.06;;;11.12;72.17
22104;BME280;11218;48.886;9.426;2023-05-01T00:41:05;97915.63;;;11.10;72.58
22104;BME280;11218;48.886;9.426;2023-05-01T00:43:33;97918.88;;;11.12;72.33
22104;BME280;11218;48.886;9.426;2023-05-01T00:46:01;97911.84;;;11.11;72.71
22104;BME280;11218;48.886;9.426;2023-05-01T00:48:31;97904.31;;;11.13;72.22
22104;BME280;11218;48.886;9.426;2023-05-01T00:50:59;97900.81;;;11.13;72.09
22104;BME280;11218;48.886;9.426;2023-05-01T00:53:28;97901.34;;;11.15;73.09
22104;BME280;11218;48.886;9.426;2023-05-01T00:55:57;97906.22;;;11.13;72.94
22104;BME280;11218;48.886;9.426;2023-05-01T00:58:25;97899.44;;;11.10;73.35
22104;BME280;11218;48.886;9.426;2023-05-01T01:00:53;97895.69;;;11.11;73.44
22104;BME280;11218;48.886;9.426;2023-05-01T01:03:22;97895.13;;;11.09;73.74
22104;BME280;11218;48.886;9.426;2023-05-01T01:05:54;97885.69;;;11.07;74.27
22104;BME280;11218;48.886;9.426;2023-05-01T01:08:27;97888.38;;;11.07;74.10
22104;BME280;11218;48.886;9.426;2023-05-01T01:11:06;97882.47;;;11.10;74.58
22104;BME280;11218;48.886;9.426;2023-05-01T01:13:45;97885.13;;;11.05;74.62
22104;BME280;11218;48.886;9.426;2023-05-01T01:16:20;97880.31;;;11.07;74.49
22104;BME280;11218;48.886;9.426;2023-05-01T01:18:51;97878.13;;;11.04;74.51
22104;BME280;11218;48.886;9.426;2023-05-01T01:21:28;97872.19;;;11.02;74.81
22104;BME280;11218;48.886;9.426;2023-05-01T01:24:34;97876.19;;;10.99;74.60
22104;BME280;11218;48.886;9.426;2023-05-01T01:27:42;97865.38;;;10.94;74.94
22104;BME280;11218;48.886;9.426;2023-05-01T01:33:54;97877.72;;;10.90;75.30
22104;BME280;11218;48.886;9.426;2023-05-01T01:36:42;97866.13;;;10.90;75.81
22104;BME280;11218;48.886;9.426;2023-05-01T01:39:26;97863.72;;;10.88;75.31
22104;BME280;11218;48.886;9.426;2023-05-01T01:41:57;97861.81;;;10.89;75.53
22104;BME280;11218;48.886;9.426;2023-05-01T01:44:29;97861.53;;;10.85;75.19
22104;BME280;11218;48.886;9.426;2023-05-01T01:47:01;97862.28;;;10.80;75.29
22104;BME280;11218;48.886;9.426;2023-05-01T01:49:36;97867.38;;;10.77;75.80
22104;BME280;11218;48.886;9.426;2023-05-01T01:52:05;97862.25;;;10.75;75.91
22104;BME280;11218;48.886;9.426;2023-05-01T01:54:39;97865.75;;;10.76;75.85
22104;BME280;11218;48.886;9.426;2023-05-01T01:57:10;97864.94;;;10.75;75.08
22104;BME280;11218;48.886;9.426;2023-05-01T01:59:40;97857.31;;;10.67;75.71
22104;BME280;11218;48.886;9.426;2023-05-01T02:02:10;97863.22;;;10.64;76.17
22104;BME280;11218;48.886;9.426;2023-05-01T02:04:41;97856.25;;;10.68;75.92
22104;BME280;11218;48.886;9.426;2023-05-01T02:07:10;97859.59;;;10.53;76.68
22104;BME280;11218;48.886;9.426;2023-05-01T02:09:40;97850.91;;;10.46;77.22
22104;BME280;11218;48.886;9.426;2023-05-01T02:12:10;97846.53;;;10.35;77.48
22104;BME280;11218;48.886;9.426;2023-05-01T02:14:39;97843.22;;;10.28;78.17
22104;BME280;11218;48.886;9.426;2023-05-01T02:17:09;97854.78;;;10.29;78.33
22104;BME280;11218;48.886;9.426;2023-05-01T02:19:37;97846.16;;;10.27;78.16
22104;BME280;11218;48.886;9.426;2023-05-01T02:22:09;97843.22;;;10.28;78.39
22104;BME280;11218;48.886;9.426;2023-05-01T02:24:39;97847.53;;;10.29;78.51
22104;BME280;11218;48.886;9.426;2023-05-01T02:27:12;97849.47;;;10.34;78.62
22104;BME280;11218;48.886;9.426;2023-05-01T02:29:41;97848.72;;;10.38;78.74
22104;BME280;11218;48.886;9.426;2023-05-01T02:32:10;97852.78;;;10.46;78.64
22104;BME280;11218;48.886;9.426;2023-05-01T02:34:38;97843.66;;;10.47;78.16
22104;BME280;11218;48.886;9.426;2023-05-01T02:37:10;97844.22;;;10.49;78.06
22104;BME280;11218;48.886;9.426;2023-05-01T02:39:40;97846.09;;;10.48;77.50
22104;BME280;11218;48.886;9.426;2023-05-01T02:42:09;97835.97;;;10.29;77.59
22104;BME280;11218;48.886;9.426;2023-05-01T02:44:40;97833.78;;;10.26;77.74
22104;BME280;11218;48.886;9.426;2023-05-01T02:47:14;97837.28;;;10.26;78.59
22104;BME280;11218;48.886;9.426;2023-05-01T02:49:45;97831.69;;;10.33;78.44
22104;BME280;11218;48.886;9.426;2023-05-01T02:52:16;97823.94;;;10.36;78.73
22104;BME280;11218;48.886;9.426;2023-05-01T02:54:45;97819.63;;;10.40;78.09
22104;BME280;11218;48.886;9.426;2023-05-01T02:57:15;97820.75;;;10.44;78.69
22104;BME280;11218;48.886;9.426;2023-05-01T02:59:43;97821.31;;;10.46;78.31
22104;BME280;11218;48.886;9.426;2023-05-01T03:02:11;97813.81;;;10.48;78.13
22104;BME280;11218;48.886;9.426;2023-05-01T03:04:40;97813.53;;;10.50;78.13
22104;BME280;11218;48.886;9.426;2023-05-01T03:07:08;97818.41;;;10.53;77.72
22104;BME280;11218;48.886;9.426;2023-05-01T03:09:38;97815.44;;;10.49;78.03
22104;BME280;11218;48.886;9.426;2023-05-01T03:12:05;97809.75;;;10.46;78.21
22104;BME280;11218;48.886;9.426;2023-05-01T03:14:33;97814.06;;;10.47;78.00
22104;BME280;11218;48.886;9.426;2023-05-01T03:17:01;97813.25;;;10.46;77.71
22104;BME280;11218;48.886;9.426;2023-05-01T03:19:29;97815.69;;;10.48;78.24
22104;BME280;11218;48.886;9.426;2023-05-01T03:21:57;97817.88;;;10.51;78.13
22104;BME280;11218;48.886;9.426;2023-05-01T03:24:25;97810.91;;;10.55;78.08
22104;BME280;11218;48.886;9.426;2023-05-01T03:26:55;97813.84;;;10.53;78.20
22104;BME280;11218;48.886;9.426;2023-05-01T03:29:23;97815.78;;;10.58;77.69
22104;BME280;11218;48.886;9.426;2023-05-01T03:31:51;97810.59;;;10.51;77.93
22104;BME280;11218;48.886;9.426;2023-05-01T03:34:19;97808.94;;;10.45;78.20
22104;BME280;11218;48.886;9.426;2023-05-01T03:36:47;97808.09;;;10.40;78.33
22104;BME280;11218;48.886;9.426;2023-05-01T03:39:15;97802.09;;;10.33;78.69
22104;BME280;11218;48.886;9.426;2023-05-01T03:41:44;97805.84;;;10.32;79.26
22104;BME280;11218;48.886;9.426;2023-05-01T03:44:14;97802.91;;;10.33;79.24
22104;BME280;11218;48.886;9.426;2023-05-01T03:46:42;97801.28;;;10.32;79.58
22104;BME280;11218;48.886;9.426;2023-05-01T03:49:10;97795.91;;;10.32;79.25
22104;BME280;11218;48.886;9.426;2023-05-01T03:51:38;97796.94;;;10.26;79.54
22104;BME280;11218;48.886;9.426;2023-05-01T03:54:06;97795.31;;;10.25;79.79
22104;BME280;11218;48.886;9.426;2023-05-01T03:56:34;97791.75;;;10.19;79.51
22104;BME280;11218;48.886;9.426;2023-05-01T03:59:04;97783.91;;;10.18;79.74
22104;BME280;11218;48.886;9.426;2023-05-01T04:01:33;97783.16;;;10.23;80.44
22104;BME280;11218;48.886;9.426;2023-05-01T04:04:01;97791.84;;;10.30;79.91
22104;BME280;11218;48.886;9.426;2023-05-01T04:06:29;97784.34;;;10.32;78.22
22104;BME280;11218;48.886;9.426;2023-05-01T04:08:58;97781.94;;;10.35;77.73
22104;BME280;11218;48.886;9.426;2023-05-01T04:11:27;97783.94;;;10.50;72.68
22104;BME280;11218;48.886;9.426;2023-05-01T04:13:55;97790.19;;;10.56;72.67
22104;BME280;11218;48.886;9.426;2023-05-01T04:16:23;97780.53;;;10.60;72.06
22104;BME280;11218;48.886;9.426;2023-05-01T04:18:53;97780.31;;;10.66;72.23
22104;BME280;11218;48.886;9.426;2023-05-01T04:21:21;97777.41;;;10.73;70.86
22104;BME280;11218;48.886;9.426;2023-05-01T04:23:49;97778.53;;;10.77;70.72
22104;BME280;11218;48.886;9.426;2023-05-01T04:26:17;97778.53;;;10.77;71.97
22104;BME280;11218;48.886;9.426;2023-05-01T04:28:45;97786.34;;;10.78;74.65
22104;BME280;11218;48.886;9.426;2023-05-01T04:31:13;97784.59;;;10.62;76.44
22104;BME280;11218;48.886;9.426;2023-05-01T04:33:41;97782.41;;;10.59;76.45
22104;BME280;11218;48.886;9.426;2023-05-01T04:36:11;97793.34;;;10.47;77.21
22104;BME280;11218;48.886;9.426;2023-05-01T04:38:39;97785.78;;;10.44;77.93
22104;BME280;11218;48.886;9.426;2023-05-01T04:41:07;97785.47;;;10.36;78.36
22104;BME280;11218;48.886;9.426;2023-05-01T04:43:35;97793.47;;;10.31;79.04
22104;BME280;11218;48.886;9.426;2023-05-01T04:46:03;97794.59;;;10.35;78.97
22104;BME280;11218;48.886;9.426;2023-05-01T04:48:31;97780.06;;;10.36;78.86
22104;BME280;11218;48.886;9.426;2023-05-01T04:50:59;97788.97;;;10.36;79.09
22104;BME280;11218;48.886;9.426;2023-05-01T04:53:30;97790.84;;;10.41;79.02
22104;BME280;11218;48.886;9.426;2023-05-01T04:55:58;97796.28;;;10.46;78.81
22104;BME280;11218;48.886;9.426;2023-05-01T04:58:26;97789.31;;;10.50;78.47
22104;BME280;11218;48.886;9.426;2023-05-01T05:00:55;97796.06;;;10.52;78.75
22104;BME280;11218;48.886;9.426;2023-05-01T05:03:22;97785.06;;;10.54;78.80
22104;BME280;11218;48.886;9.426;2023-05-01T05:05:51;97784.03;;;10.60;78.50
22104;BME280;11218;48.886;9.426;2023-05-01T05:08:18;97783.22;;;10.60;78.15
22104;BME280;11218;48.886;9.426;2023-05-01T05:10:48;97793.78;;;10.66;77.97
22104;BME280;11218;48.886;9.426;2023-05-01T05:13:16;97788.69;;;10.70;77.83
22104;BME280;11218;48.886;9.426;2023-05-01T05:15:44;97790.63;;;10.74;77.36
22104;BME280;11218;48.886;9.426;2023-05-01T05:18:13;97776.91;;;10.76;77.32
22104;BME280;11218;48.886;9.426;2023-05-01T05:20:41;97786.09;;;10.80;77.14
22104;BME280;11218;48.886;9.426;2023-05-01T05:23:09;97785.84;;;10.81;76.77
22104;BME280;11218;48.886;9.426;2023-05-01T05:25:38;97781.81;;;10.84;76.74
22104;BME280;11218;48.886;9.426;2023-05-01T05:28:07;97781.03;;;10.89;76.82
22104;BME280;11218;48.886;9.426;2023-05-01T05:30:35;97791.84;;;10.94;76.69
22104;BME280;11218;48.886;9.426;2023-05-01T05:33:06;97788.38;;;10.98;76.90
22104;BME280;11218;48.886;9.426;2023-05-01T05:35:35;97787.63;;;11.03;76.57
22104;BME280;11218;48.886;9.426;2023-05-01T05:38:03;97791.16;;;11.08;76.14
22104;BME280;11218;48.886;9.426;2023-05-01T05:40:31;97785.50;;;11.10;75.51
22104;BME280;11218;48.886;9.426;2023-05-01T05:42:59;97788.75;;;11.12;76.22
22104;BME280;11218;48.886;9.426;2023-05-01T05:45:32;97784.19;;;11.17;75.66
22104;BME280;11218;48.886;9.426;2023-05-01T05:48:00;97793.34;;;11.16;75.39
22104;BME280;11218;48.886;9.426;2023-05-01T05:50:28;97788.75;;;11.17;75.76
22104;BME280;11218;48.886;9.426;2023-05-01T05:52:57;97793.91;;;11.24;75.74
22104;BME280;11218;48.886;9.426;2023-05-01T05:55:25;97791.78;;;11.26;76.06
22104;BME280;11218;48.886;9.426;2023-05-01T05:57:53;97790.44;;;11.28;76.40
22104;BME280;11218;48.886;9.426;2023-05-01T06:00:22;97788.81;;;11.27;76.49
22104;BME280;11218;48.886;9.426;2023-05-01T06:02:51;97793.13;;;11.28;76.40
22104;BME280;11218;48.886;9.426;2023-05-01T06:05:19;97792.88;;;11.30;76.07
22104;BME280;11218;48.886;9.426;2023-05-01T06:07:47;97792.09;;;11.34;76.03
22104;BME280;11218;48.886;9.426;2023-05-01T06:10:16;97786.19;;;11.37;75.31
22104;BME280;11218;48.886;9.426;2023-05-01T06:12:45;97784.84;;;11.40;74.46
22104;BME280;11218;48.886;9.426;2023-05-01T06:15:26;97789.72;;;11.43;73.42
22104;BME280;11218;48.886;9.426;2023-05-01T06:17:57;97785.44;;;11.47;72.75
22104;BME280;11218;48.886;9.426;2023-05-01T06:20:25;97776.28;;;11.48;70.55
22104;BME280;11218;48.886;9.426;2023-05-01T06:22:53;97790.84;;;11.52;71.39
22104;BME280;11218;48.886;9.426;2023-05-01T06:25:22;97783.31;;;11.54;71.47
22104;BME280;11218;48.886;9.426;2023-05-01T06:27:51;97782.78;;;11.57;71.77
22104;BME280;11218;48.886;9.426;2023-05-01T06:30:19;97782.78;;;11.57;71.86
22104;BME280;11218;48.886;9.426;2023-05-01T06:32:47;97778.22;;;11.58;71.57
22104;BME280;11218;48.886;9.426;2023-05-01T06:35:17;97782.53;;;11.59;71.42
22104;BME280;11218;48.886;9.426;2023-05-01T06:37:46;97787.94;;;11.64;71.41
22104;BME280;11218;48.886;9.426;2023-05-01T06:40:14;97789.84;;;11.63;70.94
22104;BME280;11218;48.886;9.426;2023-05-01T06:42:42;97794.97;;;11.65;71.61
22104;BME280;11218;48.886;9.426;2023-05-01T06:45:11;97793.88;;;11.66;72.04
22104;BME280;11218;48.886;9.426;2023-05-01T06:47:39;97796.59;;;11.66;71.61
22104;BME280;11218;48.886;9.426;2023-05-01T06:50:08;97794.97;;;11.65;71.95
22104;BME280;11218;48.886;9.426;2023-05-01T06:52:39;97809.25;;;11.65;72.06
22104;BME280;11218;48.886;9.426;2023-05-01T06:55:07;97805.22;;;11.68;72.57
22104;BME280;11218;48.886;9.426;2023-05-01T06:57:36;97811.72;;;11.72;72.68
22104;BME280;11218;48.886;9.426;2023-05-01T07:00:06;97804.19;;;11.74;72.45
22104;BME280;11218;48.886;9.426;2023-05-01T07:02:37;97813.06;;;11.74;71.85
22104;BME280;11218;48.886;9.426;2023-05-01T07:05:06;97812.81;;;11.76;72.26
22104;BME280;11218;48.886;9.426;2023-05-01T07:07:34;97815.81;;;11.79;72.34
22104;BME280;11218;48.886;9.426;2023-05-01T07:10:09;97819.06;;;11.81;72.15
22104;BME280;11218;48.886;9.426;2023-05-01T07:12:37;97815.84;;;11.84;72.06
22104;BME280;11218;48.886;9.426;2023-05-01T07:15:06;97813.69;;;11.87;71.16
22104;BME280;11218;48.886;9.426;2023-05-01T07:17:35;97820.97;;;11.91;71.91
22104;BME280;11218;48.886;9.426;2023-05-01T07:20:04;97817.19;;;11.92;71.18
22104;BME280;11218;48.886;9.426;2023-05-01T07:22:32;97819.63;;;11.94;71.62
22104;BME280;11218;48.886;9.426;2023-05-01T07:25:00;97816.69;;;11.95;71.31
22104;BME280;11218;48.886;9.426;2023-05-01T07:27:30;97821.00;;;11.96;71.21
22104;BME280;11218;48.886;9.426;2023-05-01T07:29:59;97818.59;;;12.00;71.66
22104;BME280;11218;48.886;9.426;2023-05-01T07:32:27;97819.94;;;12.02;71.31
22104;BME280;11218;48.886;9.426;2023-05-01T07:34:58;97820.50;;;12.04;71.62
22104;BME280;11218;48.886;9.426;2023-05-01T07:37:26;97815.63;;;12.06;72.13
22104;BME280;11218;48.886;9.426;2023-05-01T07:39:55;97814.28;;;12.09;72.06
22104;BME280;11218;48.886;9.426;2023-05-01T07:42:25;97817.81;;;12.14;71.99
22104;BME280;11218;48.886;9.426;2023-05-01T07:44:55;97819.16;;;12.12;72.75
22104;BME280;11218;48.886;9.426;2023-05-01T07:47:23;97818.63;;;12.15;71.86
22104;BME280;11218;48.886;9.426;2023-05-01T07:49:53;97820.53;;;12.14;71.70
22104;BME280;11218;48.886;9.426;2023-05-01T07:52:21;97818.63;;;12.15;72.01
22104;BME280;11218;48.886;9.426;2023-05-01T07:54:50;97812.97;;;12.11;72.08
22104;BME280;11218;48.886;9.426;2023-05-01T07:57:18;97815.13;;;12.14;72.16
22104;BME280;11218;48.886;9.426;2023-05-01T07:59:46;97816.47;;;12.12;72.41
22104;BME280;11218;48.886;9.426;2023-05-01T08:02:17;97808.91;;;12.14;72.54
22104;BME280;11218;48.886;9.426;2023-05-01T08:04:45;97807.03;;;12.14;72.74
22104;BME280;11218;48.886;9.426;2023-05-01T08:07:14;97810.53;;;12.15;72.66
22104;BME280;11218;48.886;9.426;2023-05-01T08:09:42;97808.66;;;12.21;73.05
22104;BME280;11218;48.886;9.426;2023-05-01T08:12:10;97818.94;;;12.24;72.42
22104;BME280;11218;48.886;9.426;2023-05-01T08:14:38;97811.66;;;12.24;72.71
22104;BME280;11218;48.886;9.426;2023-05-01T08:17:06;97815.97;;;12.30;72.32
22104;BME280;11218;48.886;9.426;2023-05-01T08:19:36;97806.28;;;12.39;71.90
22104;BME280;11218;48.886;9.426;2023-05-01T08:22:04;97804.16;;;12.46;72.44
22104;BME280;11218;48.886;9.426;2023-05-01T08:24:32;97811.72;;;12.60;72.36
22104;BME280;11218;48.886;9.426;2023-05-01T08:27:00;97811.16;;;12.68;72.15
22104;BME280;11218;48.886;9.426;2023-05-01T08:29:28;97815.50;;;12.74;71.72
22104;BME280;11218;48.886;9.426;2023-05-01T08:31:57;97806.84;;;12.77;71.53
22104;BME280;11218;48.886;9.426;2023-05-01T08:34:25;97805.22;;;12.81;71.10
22104;BME280;11218;48.886;9.426;2023-05-01T08:36:55;97799.56;;;12.88;71.17
22104;BME280;11218;48.886;9.426;2023-05-01T08:39:24;97796.31;;;13.01;68.36
22104;BME280;11218;48.886;9.426;2023-05-01T08:41:52;97795.22;;;13.07;69.55
22104;BME280;11218;48.886;9.426;2023-05-01T08:44:20;97792.56;;;13.17;69.83
22104;BME280;11218;48.886;9.426;2023-05-01T08:47:01;97790.66;;;13.28;67.98
22104;BME280;11218;48.886;9.426;2023-05-01T08:49:35;97797.41;;;13.35;69.40
22104;BME280;11218;48.886;9.426;2023-05-01T08:52:06;97804.66;;;13.40;69.20
22104;BME280;11218;48.886;9.426;2023-05-01T08:54:35;97798.41;;;13.55;67.65
22104;BME280;11218;48.886;9.426;2023-05-01T08:57:05;97800.56;;;13.53;68.17
22104;BME280;11218;48.886;9.426;2023-05-01T08:59:37;97797.31;;;13.56;68.73
22104;BME280;11218;48.886;9.426;2023-05-01T09:02:07;97807.03;;;13.62;67.80
22104;BME280;11218;48.886;9.426;2023-05-01T09:04:37;97797.81;;;13.68;68.39
22104;BME280;11218;48.886;9.426;2023-05-01T09:07:08;97792.38;;;13.78;68.97
22104;BME280;11218;48.886;9.426;2023-05-01T09:09:36;97794.25;;;13.88;68.01
22104;BME280;11218;48.886;9.426;2023-05-01T09:12:11;97797.19;;;13.96;67.45
22104;BME280;11218;48.886;9.426;2023-05-01T09:14:43;97803.09;;;14.03;67.28
22104;BME280;11218;48.886;9.426;2023-05-01T09:17:12;97799.47;;;14.18;66.75
22104;BME280;11218;48.886;9.426;2023-05-01T09:19:40;97798.63;;;14.28;64.71
22104;BME280;11218;48.886;9.426;2023-05-01T09:22:10;97797.00;;;14.27;65.42
22104;BME280;11218;48.886;9.426;2023-05-01T09:24:38;97800.72;;;14.46;64.80
22104;BME280;11218;48.886;9.426;2023-05-01T09:27:06;97798.00;;;14.46;64.57
22104;BME280;11218;48.886;9.426;2023-05-01T09:29:37;97800.91;;;14.60;65.43
22104;BME280;11218;48.886;9.426;2023-05-01T09:32:16;97804.84;;;14.77;65.15
22104;BME280;11218;48.886;9.426;2023-05-01T09:34:47;97804.28;;;14.81;63.94
22104;BME280;11218;48.886;9.426;2023-05-01T09:37:28;97808.22;;;14.93;64.51
22104;BME280;11218;48.886;9.426;2023-05-01T09:40:14;97810.50;;;15.10;64.27
22104;BME280;11218;48.886;9.426;2023-05-01T09:42:48;97813.31;;;15.29;61.50
22104;BME280;11218;48.886;9.426;2023-05-01T09:45:17;97812.03;;;15.21;62.02
22104;BME280;11218;48.886;9.426;2023-05-01T09:47:46;97797.34;;;15.27;61.46
22104;BME280;11218;48.886;9.426;2023-05-01T09:50:28;97796.28;;;15.23;61.41
22104;BME280;11218;48.886;9.426;2023-05-01T09:52:59;97796.56;;;15.22;61.79
22104;BME280;11218;48.886;9.426;2023-05-01T09:55:28;97789.56;;;15.44;61.71
22104;BME280;11218;48.886;9.426;2023-05-01T09:57:56;97792.19;;;15.55;61.94
22104;BME280;11218;48.886;9.426;2023-05-01T10:00:25;97787.63;;;15.74;62.25
22104;BME280;11218;48.886;9.426;2023-05-01T10:02:53;97785.84;;;15.88;61.75
22104;BME280;11218;48.886;9.426;2023-05-01T10:05:24;97781.16;;;15.94;60.18
22104;BME280;11218;48.886;9.426;2023-05-01T10:07:58;97785.94;;;16.02;61.60
22104;BME280;11218;48.886;9.426;2023-05-01T10:10:27;97783.84;;;16.18;59.89
22104;BME280;11218;48.886;9.426;2023-05-01T10:12:55;97786.09;;;16.10;59.40
22104;BME280;11218;48.886;9.426;2023-05-01T10:15:39;97789.09;;;16.09;58.07
22104;BME280;11218;48.886;9.426;2023-05-01T10:18:08;97793.56;;;16.00;58.62
22104;BME280;11218;48.886;9.426;2023-05-01T10:20:37;97792.50;;;16.20;58.38
22104;BME280;11218;48.886;9.426;2023-05-01T10:23:07;97788.63;;;16.26;57.64
22104;BME280;11218;48.886;9.426;2023-05-01T10:25:35;97791.16;;;16.36;57.26
22104;BME280;11218;48.886;9.426;2023-05-01T10:28:04;97789.53;;;16.54;58.04
22104;BME280;11218;48.886;9.426;2023-05-01T10:30:34;97792.69;;;16.61;57.20
22104;BME280;11218;48.886;9.426;2023-05-01T10:33:11;97791.69;;;16.75;56.95
22104;BME280;11218;48.886;9.426;2023-05-01T10:35:42;97802.47;;;16.62;56.33
22104;BME280;11218;48.886;9.426;2023-05-01T10:38:18;97798.13;;;16.42;57.15
22104;BME280;11218;48.886;9.426;2023-05-01T10:40:49;97790.44;;;16.49;58.03
22104;BME280;11218;48.886;9.426;2023-05-01T10:43:20;97790.16;;;16.69;56.96
22104;BME280;11218;48.886;9.426;2023-05-01T10:45:52;97789.56;;;16.72;56.55
22104;BME280;11218;48.886;9.426;2023-05-01T10:51:23;97788.81;;;16.86;55.62
22104;BME280;11218;48.886;9.426;2023-05-01T10:54:23;97784.91;;;16.92;55.56
22104;BME280;11218;48.886;9.426;2023-05-01T10:56:53;97784.31;;;16.95;56.60
22104;BME280;11218;48.886;9.426;2023-05-01T10:59:21;97788.78;;;17.04;56.63
22104;BME280;11218;48.886;9.426;2023-05-01T11:01:51;97790.50;;;17.00;55.84
22104;BME280;11218;48.886;9.426;2023-05-01T11:04:45;97787.13;;;16.90;55.86
22104;BME280;11218;48.886;9.426;2023-05-01T11:07:21;97777.72;;;16.82;56.67
22104;BME280;11218;48.886;9.426;2023-05-01T11:09:51;97784.41;;;16.90;55.90
22104;BME280;11218;48.886;9.426;2023-05-01T11:12:47;97773.78;;;16.74;56.56
22104;BME280;11218;48.886;9.426;2023-05-01T11:15:32;97774.66;;;16.70;56.61
22104;BME280;11218;48.886;9.426;2023-05-01T11:18:01;97774.94;;;16.68;56.89
22104;BME280;11218;48.886;9.426;2023-05-01T11:20:58;97770.97;;;16.61;57.04
22104;BME280;11218;48.886;9.426;2023-05-01T11:23:30;97771.94;;;16.70;56.97
22104;BME280;11218;48.886;9.426;2023-05-01T11:26:02;97773.09;;;16.64;56.73
22104;BME280;11218;48.886;9.426;2023-05-01T11:28:32;97768.84;;;16.77;56.02
22104;BME280;11218;48.886;9.426;2023-05-01T11:31:00;97765.03;;;16.78;55.86
22104;BME280;11218;48.886;9.426;2023-05-01T11:33:29;97765.63;;;16.74;55.00
22104;BME280;11218;48.886;9.426;2023-05-01T11:36:01;97760.84;;;16.66;56.34
22104;BME280;11218;48.886;9.426;2023-05-01T11:38:30;97759.50;;;16.64;56.93
22104;BME280;11218;48.886;9.426;2023-05-01T11:41:03;97759.66;;;16.72;56.82
22104;BME280;11218;48.886;9.426;2023-05-01T11:43:31;97752.53;;;16.77;57.52
22104;BME280;11218;48.886;9.426;2023-05-01T11:46:00;97750.63;;;16.77;57.61
22104;BME280;11218;48.886;9.426;2023-05-01T11:48:31;97756.50;;;16.84;57.97
22104;BME280;11218;48.886;9.426;2023-05-01T11:50:59;97755.25;;;16.77;58.05
22104;BME280;11218;48.886;9.426;2023-05-01T11:53:28;97754.16;;;16.78;57.94
22104;BME280;11218;48.886;9.426;2023-05-01T11:55:56;97766.03;;;16.82;58.58
22104;BME280;11218;48.886;9.426;2023-05-01T11:58:33;97759.13;;;16.89;57.42
22104;BME280;11218;48.886;9.426;2023-05-01T12:01:02;97755.44;;;16.99;55.38
22104;BME280;11218;48.886;9.426;2023-05-01T12:03:42;97763.47;;;16.90;54.49
22104;BME280;11218;48.886;9.426;2023-05-01T12:06:11;97762.78;;;16.98;55.11
22104;BME280;11218;48.886;9.426;2023-05-01T12:08:42;97751.81;;;17.03;53.67
22104;BME280;11218;48.886;9.426;2023-05-01T12:11:10;97758.97;;;17.13;53.24
22104;BME280;11218;48.886;9.426;2023-05-01T12:13:40;97757.75;;;17.05;53.74
22104;BME280;11218;48.886;9.426;2023-05-01T12:16:09;97750.28;;;17.11;53.72
22104;BME280;11218;48.886;9.426;2023-05-01T12:18:37;97760.47;;;17.05;54.46
22104;BME280;11218;48.886;9.426;2023-05-01T12:21:14;97752.50;;;17.09;54.32
22104;BME280;11218;48.886;9.426;2023-05-01T12:23:42;97751.31;;;17.15;55.27
22104;BME280;11218;48.886;9.426;2023-05-01T12:26:17;97749.09;;;17.17;55.15
22104;BME280;11218;48.886;9.426;2023-05-01T12:28:57;97750.41;;;17.06;53.74
22104;BME280;11218;48.886;9.426;2023-05-01T12:31:26;97750.28;;;16.97;54.34
22104;BME280;11218;48.886;9.426;2023-05-01T12:33:56;97751.91;;;16.98;54.25
22104;BME280;11218;48.886;9.426;2023-05-01T12:36:26;97755.00;;;16.92;54.12
22104;BME280;11218;48.886;9.426;2023-05-01T12:38:56;97757.31;;;16.85;54.88
22104;BME280;11218;48.886;9.426;2023-05-01T12:41:36;97752.28;;;16.92;55.31
22104;BME280;11218;48.886;9.426;2023-05-01T12:44:21;97747.94;;;16.91;54.76
22104;BME280;11218;48.886;9.426;2023-05-01T12:46:53;97748.03;;;16.86;55.55
22104;BME280;11218;48.886;9.426;2023-05-01T12:49:23;97751.31;;;17.01;54.51
22104;BME280;11218;48.886;9.426;2023-05-01T12:51:52;97746.75;;;17.11;55.20
22104;BME280;11218;48.886;9.426;2023-05-01T12:54:21;97742.28;;;17.33;54.23
22104;BME280;11218;48.886;9.426;2023-05-01T12:56:50;97750.16;;;17.49;53.52
22104;BME280;11218;48.886;9.426;2023-05-01T12:59:21;97747.81;;;17.42;53.46
22104;BME280;11218;48.886;9.426;2023-05-01T13:01:57;97748.94;;;17.55;52.54
22104;BME280;11218;48.886;9.426;2023-05-01T13:04:26;97746.72;;;17.57;53.75
22104;BME280;11218;48.886;9.426;2023-05-01T13:06:55;97743.31;;;17.65;53.10
22104;BME280;11218;48.886;9.426;2023-05-01T13:09:24;97740.41;;;17.75;52.85
22104;BME280;11218;48.886;9.426;2023-05-01T13:11:57;97742.81;;;17.77;52.19
22104;BME280;11218;48.886;9.426;2023-05-01T13:14:27;97741.41;;;17.65;51.38
22104;BME280;11218;48.886;9.426;2023-05-01T13:16:56;97744.50;;;17.59;50.74
22104;BME280;11218;48.886;9.426;2023-05-01T13:19:25;97738.88;;;17.55;52.04
22104;BME280;11218;48.886;9.426;2023-05-01T13:21:56;97739.38;;;17.57;52.18
22104;BME280;11218;48.886;9.426;2023-05-01T13:24:34;97736.75;;;17.52;52.19